Wahlen, Germany

9:32 PM CEST on September 30, 2014 (GMT +0200)
. | Change Station
CLOSE
Current Station
Personal Weather Station
Location: Schwalmtal, HESSEN
Elevation: 1224 ft
Nearby Weather Stations

Elev 1224 ft 50.71 °N, 9.34 °E | Updated 11 seconds ago

Mostly Cloudy
Mostly Cloudy
58.3 °F
Feels Like 58.3 °F
N
1.8
Wind Variable Wind from South
Gusts 2.0 mph

Today
High -- | Low -- °F
--% Chance of Precip.
Yesterday
High -- | Low -- °F
Precip. -- in
7:21 AM 7:04 PM
Waxing Crescent, 39% visible
Pressure 30.30 in
Visibility 6.2 miles
Clouds Few 3800 ft
Mostly Cloudy 9000 ft
Dew Point 57 °F
Humidity 95%
Rainfall -999.00 in
Snow Depth Not available.
UV 0.0 out of 12
Pollen Not available.
Air Quality Not available.
Flu Activity Not available.
METAR ETHF 301920Z 30004KT 9999 FEW038 BKN090 16/14 Q1026 BLU

More Conditions Fewer Conditions

Pressure 30.30 in
Visibility 6.2 miles
Clouds Few 3800 ft
Mostly Cloudy 9000 ft
Dew Point 57 °F
Humidity 95%
Rainfall -999.00 in
Snow Depth Not available.
UV 0.0 out of 12
Pollen Not available.
Air Quality Not available.
Flu Activity Not available.
METAR ETHF 301920Z 30004KT 9999 FEW038 BKN090 16/14 Q1026 BLU

More Conditions Fewer Conditions

10-Day Weather Forecast

Almanac

Astronomy

Sep. 30, 2014 Rise Set
Actual Time 7:21 AM CEST 7:04 PM CEST
Civil Twilight 6:49 AM CEST 7:36 PM CEST
Nautical Twilight 6:10 AM CEST 8:15 PM CEST
Astronomical Twilight 5:31 AM CEST 8:54 PM CEST
Moon 1:44 PM CEST 10:49 PM CEST
Length of Visible Light 12h 47m
Length of Day
11h 42m
Tomorrow will be 3m 49s shorter.
Waxing Crescent, 39% of the Moon is Illuminated
Today
Waxing Crescent
Oct 1
First Quarter
Oct 8
Full
Oct 15
Last Quarter
Oct 23
New

Today's Extremes

Country Highs Country Lows

Community

WunderPhotos

Upload Photos

1,757,729 photos uploaded!

Nearby

Snow Depth

Not available.

Earthquake Activity

City Distance Mag. Time & Date
No recent earthquake activity has been reported nearby.
Minimum magnitude displayed is 2.5.

Coastal Water Temperatures

Place Temperature
No Stations Reporting

Nearby Weather Stations